Time;durP1;ratioP1;P1;durP2;ratioP2;P2;SDS_P1;SDS_P2;PMS_P1;PMS_P2;Temp;Humidity;BMP_temperature;BMP_pressure;BME280_temperature;BME280_humidity;BME280_pressure;Samples;Min_cycle;Max_cycle;Signal;HPM_P1;HPM_P2
2022/09/30 00:01:16;;;;;;;59.00;3.43;;;;;;;;;;5053059;28;20491;-66
2022/09/30 00:03:43;;;;;;;61.10;3.70;;;;;;;;;;5053425;28;20448;-66
2022/09/30 00:06:10;;;;;;;58.45;3.33;;;;;;;;;;5053197;28;20856;-67
2022/09/30 00:08:38;;;;;;;59.30;3.60;;;;;;;;;;5053213;28;20206;-66
2022/09/30 00:11:06;;;;;;;58.10;3.37;;;;;;;;;;5053469;28;20441;-68
2022/09/30 00:13:35;;;;;;;59.30;3.10;;;;;;;;;;5052967;28;20492;-66
2022/09/30 00:16:02;;;;;;;59.27;4.13;;;;;;;;;;5053166;28;20848;-67
2022/09/30 00:18:31;;;;;;;58.60;3.60;;;;;;;;;;5036050;28;20843;-66
2022/09/30 00:20:58;;;;;;;57.97;3.40;;;;;;;;;;5032345;28;20863;-67
2022/09/30 00:23:25;;;;;;;58.50;3.17;;;;;;;;;;5032787;28;20457;-65
2022/09/30 00:25:58;;;;;;;59.30;3.70;;;;;;;;;;5032877;28;20488;-67
2022/09/30 00:28:25;;;;;;;58.57;3.30;;;;;;;;;;5032979;28;20955;-65
2022/09/30 00:30:53;;;;;;;58.67;3.60;;;;;;;;;;5032814;28;20456;-65
2022/09/30 00:33:20;;;;;;;60.50;3.90;;;;;;;;;;5032388;28;20460;-66
2022/09/30 00:35:48;;;;;;;60.30;3.50;;;;;;;;;;5032872;28;20465;-66
2022/09/30 00:38:15;;;;;;;58.80;3.30;;;;;;;;;;5032456;28;20453;-66
2022/09/30 00:40:43;;;;;;;60.50;4.47;;;;;;;;;;5032150;28;20480;-67
2022/09/30 00:43:13;;;;;;;59.50;3.50;;;;;;;;;;5032385;28;21000;-66
2022/09/30 00:45:44;;;;;;;58.57;3.10;;;;;;;;;;5032314;28;20564;-68
2022/09/30 00:48:13;;;;;;;61.25;4.20;;;;;;;;;;5033057;28;20456;-66
2022/09/30 00:50:44;;;;;;;58.60;3.70;;;;;;;;;;5040959;28;20198;-66
2022/09/30 00:53:14;;;;;;;59.17;4.37;;;;;;;;;;5052373;28;20959;-66
2022/09/30 00:55:45;;;;;;;60.20;4.00;;;;;;;;;;5052534;28;20468;-67
2022/09/30 00:58:15;;;;;;;59.47;3.97;;;;;;;;;;5052045;28;20518;-65
2022/09/30 01:00:42;;;;;;;59.57;4.50;;;;;;;;;;5051750;28;20491;-65
2022/09/30 01:03:09;;;;;;;60.10;3.47;;;;;;;;;;5052083;28;20456;-66
2022/09/30 01:05:36;;;;;;;58.27;3.60;;;;;;;;;;5051978;28;20468;-66
2022/09/30 01:08:05;;;;;;;58.90;3.53;;;;;;;;;;5052108;28;20452;-66
2022/09/30 01:10:34;;;;;;;58.50;3.30;;;;;;;;;;5051928;28;20448;-66
2022/09/30 01:13:01;;;;;;;58.50;3.80;;;;;;;;;;5052363;28;20972;-68
2022/09/30 01:15:34;;;;;;;58.90;3.17;;;;;;;;;;5052136;28;20839;-65
2022/09/30 01:18:04;;;;;;;59.07;3.63;;;;;;;;;;5051714;28;20452;-65
2022/09/30 01:20:41;;;;;;;59.13;3.30;;;;;;;;;;5029538;28;20481;-65
2022/09/30 01:23:29;;;;;;;59.00;3.42;;;;;;;;;;5030620;28;20210;-65
2022/09/30 01:26:12;;;;;;;58.50;3.30;;;;;;;;;;5031738;28;20736;-67
2022/09/30 01:28:47;;;;;;;59.43;4.07;;;;;;;;;;5031679;28;20834;-68
2022/09/30 01:31:22;;;;;;;58.80;3.90;;;;;;;;;;5032208;28;20445;-66
2022/09/30 01:33:56;;;;;;;58.50;3.20;;;;;;;;;;5031980;28;20479;-65
2022/09/30 01:36:33;;;;;;;58.27;2.80;;;;;;;;;;5031848;28;20825;-65
2022/09/30 01:39:07;;;;;;;59.07;4.00;;;;;;;;;;5030980;28;20463;-67
2022/09/30 01:41:39;;;;;;;59.30;3.33;;;;;;;;;;5031372;28;20481;-68
2022/09/30 01:44:11;;;;;;;58.60;3.10;;;;;;;;;;5031320;28;20552;-67
2022/09/30 01:46:43;;;;;;;58.73;3.40;;;;;;;;;;5031628;28;20445;-66
2022/09/30 01:49:12;;;;;;;58.40;3.20;;;;;;;;;;5031338;28;20449;-66
2022/09/30 01:51:42;;;;;;;59.50;4.23;;;;;;;;;;5031597;28;20445;-66
2022/09/30 01:54:14;;;;;;;60.43;4.20;;;;;;;;;;5032032;28;20453;-65
2022/09/30 01:56:42;;;;;;;59.00;3.23;;;;;;;;;;5049406;28;20448;-66
2022/09/30 01:59:11;;;;;;;59.10;3.90;;;;;;;;;;5050862;28;20826;-65
2022/09/30 02:01:40;;;;;;;59.40;3.90;;;;;;;;;;5051018;28;20480;-67
2022/09/30 02:04:11;;;;;;;64.60;4.13;;;;;;;;;;5050735;28;20448;-66
2022/09/30 02:06:41;;;;;;;58.40;3.00;;;;;;;;;;5051470;28;20452;-66
2022/09/30 02:09:10;;;;;;;58.77;3.60;;;;;;;;;;5051294;28;20447;-65
2022/09/30 02:11:38;;;;;;;59.60;3.80;;;;;;;;;;5051306;28;20451;-66
2022/09/30 02:14:07;;;;;;;58.37;3.43;;;;;;;;;;5052269;28;20982;-66
2022/09/30 02:16:38;;;;;;;58.07;2.90;;;;;;;;;;5055155;28;20452;-67
2022/09/30 02:19:09;;;;;;;58.37;3.10;;;;;;;;;;5055082;28;20492;-67
2022/09/30 02:21:40;;;;;;;58.70;3.13;;;;;;;;;;5055025;28;20506;-66
2022/09/30 02:24:11;;;;;;;59.47;3.57;;;;;;;;;;5055016;28;20456;-65
2022/09/30 02:26:39;;;;;;;59.00;4.10;;;;;;;;;;5053243;28;20958;-68
2022/09/30 02:29:09;;;;;;;58.80;3.70;;;;;;;;;;5034735;28;20452;-65
2022/09/30 02:31:40;;;;;;;58.40;3.10;;;;;;;;;;5035452;28;20212;-65
2022/09/30 02:34:09;;;;;;;58.87;3.00;;;;;;;;;;5035340;28;20627;-66
2022/09/30 02:36:38;;;;;;;59.10;3.43;;;;;;;;;;5034996;28;20564;-66
2022/09/30 02:39:08;;;;;;;58.50;3.33;;;;;;;;;;5034557;28;20445;-65
2022/09/30 02:41:37;;;;;;;58.90;3.50;;;;;;;;;;5034382;28;20480;-67
2022/09/30 02:44:05;;;;;;;58.70;3.30;;;;;;;;;;5034459;28;20456;-66
2022/09/30 02:46:38;;;;;;;58.67;3.40;;;;;;;;;;5034909;28;20460;-66
2022/09/30 02:49:09;;;;;;;58.30;2.93;;;;;;;;;;5034514;28;20457;-65
2022/09/30 02:51:38;;;;;;;61.13;3.80;;;;;;;;;;5035050;28;20450;-67
2022/09/30 02:54:11;;;;;;;58.57;3.10;;;;;;;;;;5034925;28;20449;-66
2022/09/30 02:56:45;;;;;;;59.43;3.87;;;;;;;;;;5034885;28;20448;-65
2022/09/30 02:59:13;;;;;;;59.27;3.93;;;;;;;;;;5040239;28;20459;-65
2022/09/30 03:01:40;;;;;;;59.93;3.80;;;;;;;;;;5054424;28;20494;-67
2022/09/30 03:04:09;;;;;;;58.60;3.40;;;;;;;;;;5054470;28;20456;-65
2022/09/30 03:06:37;;;;;;;58.73;3.30;;;;;;;;;;5055020;28;20444;-66
2022/09/30 03:09:05;;;;;;;58.70;3.77;;;;;;;;;;5053788;28;20510;-66
2022/09/30 03:11:34;;;;;;;59.15;3.42;;;;;;;;;;5054691;28;20454;-65
2022/09/30 03:14:21;;;;;;;58.53;3.00;;;;;;;;;;5054422;28;20210;-66
2022/09/30 03:16:59;;;;;;;58.40;3.20;;;;;;;;;;5044695;28;21025;-66
2022/09/30 03:19:35;;;;;;;60.20;4.63;;;;;;;;;;5053586;28;20462;-66
2022/09/30 03:22:12;;;;;;;58.80;3.60;;;;;;;;;;5053876;28;20495;-68
2022/09/30 03:24:50;;;;;;;58.60;3.50;;;;;;;;;;5053487;28;21012;-68
2022/09/30 03:27:24;;;;;;;58.73;3.70;;;;;;;;;;5053256;28;20792;-68
2022/09/30 03:29:55;;;;;;;58.75;3.30;;;;;;;;;;5053641;28;20447;-67
2022/09/30 03:32:28;;;;;;;58.83;3.30;;;;;;;;;;5037027;28;20252;-65
2022/09/30 03:35:02;;;;;;;59.90;4.22;;;;;;;;;;5034062;28;20477;-67
2022/09/30 03:37:32;;;;;;;58.70;3.30;;;;;;;;;;5033692;28;20628;-66
2022/09/30 03:40:01;;;;;;;59.50;3.73;;;;;;;;;;5033211;28;20966;-66
2022/09/30 03:42:34;;;;;;;58.17;2.80;;;;;;;;;;5033427;28;20485;-65
2022/09/30 03:45:04;;;;;;;58.60;3.30;;;;;;;;;;5033617;28;20470;-66
2022/09/30 03:47:32;;;;;;;59.67;4.20;;;;;;;;;;5033881;28;20450;-65
2022/09/30 03:50:01;;;;;;;59.58;4.55;;;;;;;;;;5033283;28;20460;-65
2022/09/30 03:52:30;;;;;;;58.40;3.17;;;;;;;;;;5033522;28;20199;-67
2022/09/30 03:54:59;;;;;;;62.53;4.13;;;;;;;;;;5033945;28;20508;-65
2022/09/30 03:57:28;;;;;;;58.78;3.10;;;;;;;;;;5033340;28;20976;-66
2022/09/30 04:03:00;;;;;;;59.53;3.97;;;;;;;;;;5029839;28;20225;-65
2022/09/30 04:05:27;;;;;;;58.50;3.23;;;;;;;;;;5032966;28;20686;-65
2022/09/30 04:07:54;;;;;;;58.70;3.33;;;;;;;;;;5033528;28;20449;-66
2022/09/30 04:10:21;;;;;;;58.27;3.63;;;;;;;;;;5033177;28;20449;-65
2022/09/30 04:12:48;;;;;;;58.55;3.15;;;;;;;;;;5033465;28;20456;-66
2022/09/30 04:15:15;;;;;;;58.97;3.83;;;;;;;;;;5033288;28;20230;-65
2022/09/30 04:17:42;;;;;;;58.60;3.80;;;;;;;;;;5032958;28;20453;-66
2022/09/30 04:20:12;;;;;;;60.00;3.97;;;;;;;;;;5032871;28;20493;-65
2022/09/30 04:22:39;;;;;;;60.38;4.35;;;;;;;;;;5032690;28;20493;-68
2022/09/30 04:25:07;;;;;;;59.67;3.73;;;;;;;;;;5032773;28;20605;-65
2022/09/30 04:27:34;;;;;;;61.70;4.20;;;;;;;;;;5033190;28;20460;-65
2022/09/30 04:30:01;;;;;;;58.65;3.53;;;;;;;;;;5032537;28;20461;-66
2022/09/30 04:32:29;;;;;;;59.22;3.78;;;;;;;;;;5032886;28;20202;-65
2022/09/30 04:34:56;;;;;;;59.58;3.53;;;;;;;;;;5035875;28;20291;-65
2022/09/30 04:37:24;;;;;;;58.45;3.35;;;;;;;;;;5052053;28;20209;-67
2022/09/30 04:39:51;;;;;;;58.95;3.40;;;;;;;;;;5052290;28;20232;-67
2022/09/30 04:42:18;;;;;;;58.85;3.35;;;;;;;;;;5052804;28;20228;-66
2022/09/30 04:44:46;;;;;;;58.88;3.60;;;;;;;;;;5042550;28;20249;-65
2022/09/30 04:47:14;;;;;;;60.95;3.50;;;;;;;;;;5032892;28;20695;-65
2022/09/30 04:49:41;;;;;;;58.55;3.20;;;;;;;;;;5032217;28;20627;-67
2022/09/30 04:52:08;;;;;;;60.00;3.80;;;;;;;;;;5032751;28;20202;-65
2022/09/30 04:54:38;;;;;;;59.90;3.65;;;;;;;;;;5032586;28;20241;-68
2022/09/30 04:57:05;;;;;;;59.17;3.35;;;;;;;;;;5032348;28;20214;-65
2022/09/30 04:59:32;;;;;;;59.67;3.90;;;;;;;;;;5031876;28;20221;-65
2022/09/30 05:02:00;;;;;;;59.85;3.25;;;;;;;;;;5032167;28;20280;-67
2022/09/30 05:04:27;;;;;;;58.38;3.22;;;;;;;;;;5032340;28;20361;-68
2022/09/30 05:06:54;;;;;;;59.22;3.40;;;;;;;;;;5031775;28;20206;-70
2022/09/30 05:09:22;;;;;;;60.08;3.85;;;;;;;;;;5051869;28;20210;-67
2022/09/30 05:11:50;;;;;;;58.67;3.20;;;;;;;;;;5052092;28;20678;-65
2022/09/30 05:14:18;;;;;;;58.67;3.05;;;;;;;;;;5051920;28;20238;-65
2022/09/30 05:16:45;;;;;;;60.60;3.97;;;;;;;;;;5052115;28;20601;-65
2022/09/30 05:19:12;;;;;;;59.00;4.00;;;;;;;;;;5051710;28;20202;-67
2022/09/30 05:21:39;;;;;;;58.58;3.10;;;;;;;;;;5051556;28;20305;-66
2022/09/30 05:24:06;;;;;;;58.78;3.50;;;;;;;;;;5051620;28;20288;-65
2022/09/30 05:26:33;;;;;;;58.35;3.20;;;;;;;;;;5052011;28;20210;-66
2022/09/30 05:29:02;;;;;;;60.53;5.38;;;;;;;;;;5051270;28;20208;-66
2022/09/30 05:31:29;;;;;;;59.40;4.07;;;;;;;;;;5051850;28;20205;-65
2022/09/30 05:33:56;;;;;;;59.53;3.95;;;;;;;;;;5051374;28;20241;-65
2022/09/30 05:36:23;;;;;;;60.05;3.80;;;;;;;;;;5051754;28;20212;-65
2022/09/30 05:38:51;;;;;;;59.28;3.40;;;;;;;;;;5051063;28;20698;-65
2022/09/30 05:41:19;;;;;;;58.47;3.38;;;;;;;;;;5049528;28;20236;-65
2022/09/30 05:43:46;;;;;;;58.70;3.10;;;;;;;;;;5051454;28;20629;-65
2022/09/30 05:46:15;;;;;;;59.40;3.47;;;;;;;;;;5051471;28;20316;-65
2022/09/30 05:48:42;;;;;;;59.00;3.58;;;;;;;;;;5050520;28;20202;-66
2022/09/30 05:51:09;;;;;;;78.20;3.80;;;;;;;;;;5051438;28;20267;-66
2022/09/30 05:53:38;;;;;;;60.08;3.90;;;;;;;;;;5051339;28;20202;-64
2022/09/30 05:56:05;;;;;;;58.67;3.15;;;;;;;;;;5051758;28;20734;-65
2022/09/30 05:58:32;;;;;;;60.80;3.72;;;;;;;;;;5051098;28;20202;-66
2022/09/30 06:01:05;;;;;;;59.17;3.58;;;;;;;;;;5051270;28;20217;-66
2022/09/30 06:03:33;;;;;;;59.28;4.32;;;;;;;;;;5051174;28;20229;-66
2022/09/30 06:06:01;;;;;;;58.97;4.10;;;;;;;;;;5050798;28;20747;-65
2022/09/30 06:08:28;;;;;;;59.08;3.45;;;;;;;;;;5051089;28;20209;-65
2022/09/30 06:10:58;;;;;;;60.83;3.00;;;;;;;;;;5051085;28;20217;-66
2022/09/30 06:13:25;;;;;;;59.83;4.28;;;;;;;;;;5049140;28;20198;-65
2022/09/30 06:15:56;;;;;;;59.70;3.88;;;;;;;;;;5051368;28;20229;-65
2022/09/30 06:18:24;;;;;;;61.78;4.10;;;;;;;;;;5050830;28;20202;-65
2022/09/30 06:20:53;;;;;;;58.55;3.60;;;;;;;;;;5050995;28;20567;-65
2022/09/30 06:23:20;;;;;;;58.50;3.13;;;;;;;;;;5050947;28;20226;-66
2022/09/30 06:25:50;;;;;;;60.60;4.07;;;;;;;;;;5050831;28;20577;-65
2022/09/30 06:28:18;;;;;;;58.27;3.40;;;;;;;;;;5050893;28;20448;-65
2022/09/30 06:30:45;;;;;;;60.00;3.33;;;;;;;;;;5050684;28;20547;-65
2022/09/30 06:33:12;;;;;;;58.42;2.97;;;;;;;;;;5050965;28;20441;-65
2022/09/30 06:35:41;;;;;;;59.72;4.22;;;;;;;;;;5051343;28;20598;-65
2022/09/30 06:38:09;;;;;;;60.13;3.90;;;;;;;;;;5050992;28;20212;-67
2022/09/30 06:40:37;;;;;;;59.27;3.20;;;;;;;;;;5050878;28;20210;-65
2022/09/30 06:43:04;;;;;;;59.22;4.18;;;;;;;;;;5050573;28;20589;-65
2022/09/30 06:45:34;;;;;;;58.80;3.53;;;;;;;;;;5051086;28;20261;-65
2022/09/30 06:48:04;;;;;;;59.35;4.15;;;;;;;;;;5051391;28;20969;-65
2022/09/30 06:50:31;;;;;;;60.38;3.72;;;;;;;;;;5050992;28;20205;-65
2022/09/30 06:52:59;;;;;;;59.05;3.30;;;;;;;;;;5051180;28;20666;-65
2022/09/30 06:55:27;;;;;;;59.17;3.83;;;;;;;;;;5051148;28;20226;-65
2022/09/30 06:57:54;;;;;;;60.80;5.22;;;;;;;;;;5051118;28;20448;-65
2022/09/30 07:00:22;;;;;;;60.00;4.47;;;;;;;;;;5052170;28;20283;-65
2022/09/30 07:02:49;;;;;;;60.10;4.03;;;;;;;;;;5054964;28;20232;-66
2022/09/30 07:05:16;;;;;;;59.30;3.17;;;;;;;;;;5054909;28;20468;-65
2022/09/30 07:07:44;;;;;;;59.67;3.80;;;;;;;;;;5054965;28;20448;-65
2022/09/30 07:10:11;;;;;;;60.50;4.47;;;;;;;;;;5054350;28;20451;-66
2022/09/30 07:12:41;;;;;;;59.28;3.72;;;;;;;;;;5054594;28;20952;-65
2022/09/30 07:15:08;;;;;;;59.15;4.03;;;;;;;;;;5054767;28;20590;-65
2022/09/30 07:17:35;;;;;;;59.17;3.25;;;;;;;;;;5054775;28;20206;-67
2022/09/30 07:20:02;;;;;;;60.90;4.90;;;;;;;;;;5054373;28;20557;-65
2022/09/30 07:22:31;;;;;;;60.70;4.43;;;;;;;;;;5054449;28;20483;-67
2022/09/30 07:24:58;;;;;;;59.33;4.07;;;;;;;;;;5054345;28;20499;-66
2022/09/30 07:27:26;;;;;;;58.03;3.07;;;;;;;;;;5054225;28;20483;-67
2022/09/30 07:29:54;;;;;;;60.07;4.00;;;;;;;;;;5054252;28;20444;-65
2022/09/30 07:32:22;;;;;;;59.57;3.63;;;;;;;;;;5054722;28;20528;-65
2022/09/30 07:34:49;;;;;;;59.40;3.70;;;;;;;;;;5054133;28;20486;-65
2022/09/30 07:37:17;;;;;;;58.90;3.83;;;;;;;;;;5054306;28;20444;-67
2022/09/30 07:39:45;;;;;;;60.00;4.30;;;;;;;;;;5053870;28;20456;-66
2022/09/30 07:42:12;;;;;;;60.37;4.00;;;;;;;;;;5054017;28;20490;-66
2022/09/30 07:44:40;;;;;;;60.10;3.97;;;;;;;;;;5054051;28;20468;-65
2022/09/30 07:47:09;;;;;;;61.60;6.10;;;;;;;;;;5054261;28;20881;-66
2022/09/30 07:49:36;;;;;;;59.80;4.23;;;;;;;;;;5053621;28;20452;-67
2022/09/30 07:52:04;;;;;;;59.27;3.87;;;;;;;;;;5053949;28;20448;-65
2022/09/30 07:54:32;;;;;;;63.40;5.37;;;;;;;;;;5053692;28;20491;-65
2022/09/30 07:57:00;;;;;;;58.90;4.30;;;;;;;;;;5053837;28;20452;-66
2022/09/30 07:59:28;;;;;;;59.00;3.43;;;;;;;;;;5053447;28;20933;-65
2022/09/30 08:01:55;;;;;;;59.80;3.30;;;;;;;;;;5053902;28;20448;-65
2022/09/30 08:04:24;;;;;;;60.83;5.37;;;;;;;;;;5053776;28;20464;-65
2022/09/30 08:06:52;;;;;;;59.37;4.23;;;;;;;;;;5053610;28;20444;-66
2022/09/30 08:09:20;;;;;;;62.40;4.80;;;;;;;;;;5053472;28;20444;-66
2022/09/30 08:11:48;;;;;;;60.20;5.83;;;;;;;;;;5052946;28;20860;-66
2022/09/30 08:14:15;;;;;;;65.40;5.37;;;;;;;;;;5053611;28;20534;-67
2022/09/30 08:16:43;;;;;;;58.50;3.53;;;;;;;;;;5053602;28;20440;-66
2022/09/30 08:19:13;;;;;;;62.60;5.53;;;;;;;;;;5053196;28;20452;-66
2022/09/30 08:21:42;;;;;;;60.70;4.50;;;;;;;;;;5053451;28;20458;-66
2022/09/30 08:24:09;;;;;;;58.90;4.90;;;;;;;;;;5053152;28;20484;-65
2022/09/30 08:26:36;;;;;;;62.07;5.27;;;;;;;;;;5053256;28;20448;-65
2022/09/30 08:29:03;;;;;;;59.40;3.90;;;;;;;;;;5052856;28;20456;-67
2022/09/30 08:31:32;;;;;;;59.70;4.20;;;;;;;;;;5053196;28;20452;-66
2022/09/30 08:33:59;;;;;;;58.57;3.50;;;;;;;;;;5052846;28;20468;-66
2022/09/30 08:36:27;;;;;;;60.00;4.20;;;;;;;;;;5053285;28;20444;-67
2022/09/30 08:38:56;;;;;;;59.33;4.17;;;;;;;;;;5052658;28;20941;-66
2022/09/30 08:41:36;;;;;;;59.10;3.60;;;;;;;;;;5053441;28;20455;-66
2022/09/30 08:44:11;;;;;;;59.17;4.20;;;;;;;;;;5050493;28;20575;-65
2022/09/30 08:46:44;;;;;;;59.77;3.80;;;;;;;;;;5049675;28;20535;-66
2022/09/30 08:49:19;;;;;;;60.40;4.73;;;;;;;;;;5051771;28;20452;-66
2022/09/30 08:51:47;;;;;;;62.57;6.37;;;;;;;;;;5052081;28;20677;-67
2022/09/30 08:54:17;;;;;;;61.20;5.27;;;;;;;;;;5051767;28;20461;-65
2022/09/30 08:56:45;;;;;;;64.20;6.60;;;;;;;;;;5051824;28;20543;-68
2022/09/30 08:59:17;;;;;;;62.27;4.53;;;;;;;;;;5051696;28;20455;-68
2022/09/30 09:01:46;;;;;;;61.17;5.27;;;;;;;;;;5052083;28;20611;-66
2022/09/30 09:04:14;;;;;;;63.67;7.07;;;;;;;;;;5051806;28;20480;-67
2022/09/30 09:06:49;;;;;;;61.90;5.83;;;;;;;;;;5052328;28;20796;-67
2022/09/30 09:09:34;;;;;;;62.30;5.90;;;;;;;;;;5051445;28;21044;-67
2022/09/30 09:12:06;;;;;;;62.27;5.07;;;;;;;;;;5052052;28;20455;-67
2022/09/30 09:14:40;;;;;;;61.23;5.70;;;;;;;;;;5051560;28;20980;-66
2022/09/30 09:17:14;;;;;;;64.40;6.20;;;;;;;;;;5050426;28;20844;-65
2022/09/30 09:19:43;;;;;;;64.40;6.60;;;;;;;;;;5051104;28;20444;-65
2022/09/30 09:22:11;;;;;;;63.47;6.07;;;;;;;;;;5051364;28;20445;-65
2022/09/30 09:24:43;;;;;;;62.80;6.10;;;;;;;;;;5051441;28;20515;-66
2022/09/30 09:27:17;;;;;;;60.37;5.30;;;;;;;;;;5036944;28;20475;-66
2022/09/30 09:29:50;;;;;;;60.70;5.80;;;;;;;;;;5031479;28;20982;-65
2022/09/30 09:32:18;;;;;;;60.20;4.77;;;;;;;;;;5031846;28;20482;-69
2022/09/30 09:34:45;;;;;;;60.97;5.10;;;;;;;;;;5031733;28;20483;-67
2022/09/30 09:37:17;;;;;;;62.67;5.73;;;;;;;;;;5032126;28;20476;-65
2022/09/30 09:39:59;;;;;;;61.40;4.80;;;;;;;;;;5031332;28;20463;-67
2022/09/30 09:42:32;;;;;;;60.50;4.57;;;;;;;;;;5031490;28;20922;-65
2022/09/30 09:45:01;;;;;;;59.50;4.17;;;;;;;;;;5031000;28;20469;-66
2022/09/30 09:47:28;;;;;;;59.13;4.00;;;;;;;;;;5031097;28;20460;-65
2022/09/30 09:49:57;;;;;;;60.10;5.10;;;;;;;;;;5030481;28;20449;-66
2022/09/30 09:52:42;;;;;;;59.80;4.60;;;;;;;;;;5031927;28;20445;-66
2022/09/30 09:55:11;;;;;;;60.27;4.73;;;;;;;;;;5021652;28;20989;-65
2022/09/30 09:57:39;;;;;;;59.77;4.03;;;;;;;;;;5031805;28;20449;-66
2022/09/30 10:03:00;;;;;;;59.20;4.13;;;;;;;;;;5031840;28;20487;-63
2022/09/30 10:05:28;;;;;;;59.17;3.60;;;;;;;;;;5031635;28;20577;-66
2022/09/30 10:08:09;;;;;;;59.00;3.50;;;;;;;;;;5031603;28;20457;-66
2022/09/30 10:10:44;;;;;;;58.60;3.30;;;;;;;;;;5031643;28;20453;-66
2022/09/30 10:13:16;;;;;;;58.37;3.37;;;;;;;;;;5031879;28;20440;-65
2022/09/30 10:15:43;;;;;;;58.97;3.70;;;;;;;;;;5031590;28;20469;-63
2022/09/30 10:18:17;;;;;;;58.70;3.70;;;;;;;;;;5031498;28;20449;-64
2022/09/30 10:20:50;;;;;;;58.87;3.50;;;;;;;;;;5031643;28;20472;-63
2022/09/30 10:23:19;;;;;;;58.60;3.60;;;;;;;;;;5031924;28;20491;-64
2022/09/30 10:25:58;;;;;;;58.77;3.57;;;;;;;;;;5031536;28;20833;-65
2022/09/30 10:28:27;;;;;;;59.70;3.77;;;;;;;;;;5031404;28;20457;-63
2022/09/30 10:30:55;;;;;;;59.57;3.90;;;;;;;;;;5031204;28;20452;-64
2022/09/30 10:33:23;;;;;;;59.13;3.10;;;;;;;;;;5031578;28;20456;-66
2022/09/30 10:35:53;;;;;;;59.43;3.10;;;;;;;;;;5033814;28;20473;-66
2022/09/30 10:38:20;;;;;;;58.17;2.70;;;;;;;;;;5035404;28;20449;-66
2022/09/30 10:40:49;;;;;;;58.17;2.90;;;;;;;;;;5035070;28;20453;-67
2022/09/30 10:43:22;;;;;;;57.70;2.77;;;;;;;;;;5035142;28;20504;-63
2022/09/30 10:45:50;;;;;;;59.50;3.47;;;;;;;;;;5035372;28;20468;-63
2022/09/30 10:48:18;;;;;;;57.87;2.53;;;;;;;;;;5035261;28;20480;-63
2022/09/30 10:50:50;;;;;;;57.67;2.50;;;;;;;;;;5034859;28;20456;-64
2022/09/30 10:53:19;;;;;;;57.77;2.53;;;;;;;;;;5035200;28;20499;-64
2022/09/30 10:55:46;;;;;;;57.50;2.23;;;;;;;;;;5034925;28;20480;-63
2022/09/30 10:58:38;;;;;;;57.63;2.33;;;;;;;;;;5035127;28;20470;-65
2022/09/30 11:01:10;;;;;;;58.27;2.30;;;;;;;;;;5035094;28;20457;-66
2022/09/30 11:03:40;;;;;;;57.37;2.20;;;;;;;;;;5034883;28;20477;-63
2022/09/30 11:06:07;;;;;;;57.40;2.07;;;;;;;;;;5034732;28;21015;-63
2022/09/30 11:08:39;;;;;;;56.83;1.80;;;;;;;;;;5034493;28;20464;-64
2022/09/30 11:11:09;;;;;;;57.03;1.80;;;;;;;;;;5034985;28;20458;-63
2022/09/30 11:13:41;;;;;;;57.37;2.07;;;;;;;;;;5034954;28;20807;-63
2022/09/30 11:16:13;;;;;;;58.33;2.00;;;;;;;;;;5034675;28;20473;-65
2022/09/30 11:18:43;;;;;;;57.23;2.43;;;;;;;;;;5034168;28;20544;-64
2022/09/30 11:21:13;;;;;;;58.27;2.20;;;;;;;;;;5034792;28;20451;-64
2022/09/30 11:23:43;;;;;;;57.17;2.23;;;;;;;;;;5034812;28;20939;-63
2022/09/30 11:26:13;;;;;;;57.70;2.30;;;;;;;;;;5034575;28;20476;-64
2022/09/30 11:28:48;;;;;;;59.60;2.63;;;;;;;;;;5034195;28;20480;-63
2022/09/30 11:31:21;;;;;;;57.37;1.80;;;;;;;;;;5034406;28;20456;-64
2022/09/30 11:33:56;;;;;;;57.23;2.10;;;;;;;;;;5034222;28;20465;-63
2022/09/30 11:36:27;;;;;;;57.47;2.00;;;;;;;;;;5034180;28;21027;-63
2022/09/30 11:39:06;;;;;;;57.60;2.47;;;;;;;;;;5034060;28;20453;-63
2022/09/30 11:41:35;;;;;;;57.17;1.90;;;;;;;;;;5034176;28;21008;-63
2022/09/30 11:44:11;;;;;;;57.20;2.20;;;;;;;;;;5034268;28;20488;-63
2022/09/30 11:46:54;;;;;;;56.97;1.80;;;;;;;;;;5033101;28;20449;-63
2022/09/30 11:49:27;;;;;;;57.00;2.00;;;;;;;;;;5033815;28;20479;-64
2022/09/30 11:51:58;;;;;;;57.17;1.90;;;;;;;;;;5034092;28;20732;-64
2022/09/30 11:54:33;;;;;;;56.97;1.80;;;;;;;;;;5034137;28;20487;-64
2022/09/30 11:57:03;;;;;;;57.07;1.80;;;;;;;;;;5034104;28;20453;-64
2022/09/30 11:59:35;;;;;;;57.17;1.90;;;;;;;;;;5033722;28;20471;-64
2022/09/30 12:02:03;;;;;;;56.97;1.63;;;;;;;;;;5033917;28;20972;-63
2022/09/30 12:04:32;;;;;;;57.87;1.90;;;;;;;;;;5033538;28;20492;-63
2022/09/30 12:07:01;;;;;;;57.23;2.17;;;;;;;;;;5033928;28;20449;-63
2022/09/30 12:09:29;;;;;;;57.20;2.00;;;;;;;;;;5033428;28;20456;-63
2022/09/30 12:11:59;;;;;;;57.33;2.13;;;;;;;;;;5033720;28;20456;-63
2022/09/30 12:14:30;;;;;;;57.20;1.93;;;;;;;;;;5033664;28;20470;-63
2022/09/30 12:17:00;;;;;;;57.07;1.90;;;;;;;;;;5033524;28;20886;-63
2022/09/30 12:19:29;;;;;;;56.90;1.90;;;;;;;;;;5033158;28;20837;-63
2022/09/30 12:21:59;;;;;;;56.87;1.70;;;;;;;;;;5033663;28;20456;-63
2022/09/30 12:24:30;;;;;;;57.40;2.20;;;;;;;;;;5033439;28;20497;-64
2022/09/30 12:26:58;;;;;;;57.27;1.80;;;;;;;;;;5033418;28;20457;-63
2022/09/30 12:32:27;;;;;;;56.93;1.97;;;;;;;;;;5033363;28;20424;-66
2022/09/30 12:35:00;;;;;;;56.90;1.73;;;;;;;;;;5033205;28;20484;-63
2022/09/30 12:37:47;;;;;;;56.80;1.60;;;;;;;;;;5033270;28;20453;-63
2022/09/30 12:40:25;;;;;;;57.10;1.90;;;;;;;;;;5033033;28;20461;-64
2022/09/30 12:43:09;;;;;;;57.60;2.10;;;;;;;;;;5033302;28;20459;-63
2022/09/30 12:45:46;;;;;;;57.37;2.20;;;;;;;;;;5032743;28;20503;-64
2022/09/30 12:48:16;;;;;;;57.70;1.90;;;;;;;;;;5032843;28;20795;-63
2022/09/30 12:50:45;;;;;;;57.57;2.07;;;;;;;;;;5032838;28;20451;-64
2022/09/30 12:53:18;;;;;;;57.50;2.10;;;;;;;;;;5033046;28;20468;-65
2022/09/30 12:55:45;;;;;;;57.80;2.10;;;;;;;;;;5032980;28;20474;-65
2022/09/30 12:58:20;;;;;;;57.40;2.10;;;;;;;;;;5032542;28;20449;-66
2022/09/30 13:00:59;;;;;;;57.90;2.30;;;;;;;;;;5032370;28;20941;-67
2022/09/30 13:03:28;;;;;;;57.90;2.40;;;;;;;;;;5032882;28;20445;-65
2022/09/30 13:05:56;;;;;;;57.43;2.13;;;;;;;;;;5032741;28;20465;-67
2022/09/30 13:08:25;;;;;;;57.47;2.07;;;;;;;;;;5032753;28;20489;-66
2022/09/30 13:10:58;;;;;;;57.53;2.30;;;;;;;;;;5032404;28;20945;-65
2022/09/30 13:13:26;;;;;;;57.67;2.33;;;;;;;;;;5032596;28;20461;-65
2022/09/30 13:15:55;;;;;;;57.80;2.50;;;;;;;;;;5032547;28;20469;-67
2022/09/30 13:18:40;;;;;;;57.90;2.50;;;;;;;;;;5032400;28;20544;-66
2022/09/30 13:21:22;;;;;;;57.80;2.20;;;;;;;;;;5022455;28;20460;-65
2022/09/30 13:23:50;;;;;;;57.60;2.17;;;;;;;;;;5032237;28;20445;-66
2022/09/30 13:26:33;;;;;;;57.30;2.00;;;;;;;;;;5032277;28;20468;-65
2022/09/30 13:29:15;;;;;;;57.60;2.03;;;;;;;;;;5031847;28;20945;-64
2022/09/30 13:31:57;;;;;;;57.33;1.90;;;;;;;;;;5031943;28;20453;-63
2022/09/30 13:34:25;;;;;;;57.07;1.80;;;;;;;;;;5031820;28;20479;-64
2022/09/30 13:36:59;;;;;;;56.87;1.80;;;;;;;;;;5032237;28;20452;-64
2022/09/30 13:39:28;;;;;;;56.77;1.90;;;;;;;;;;5031856;28;20449;-63
2022/09/30 13:42:02;;;;;;;56.90;1.80;;;;;;;;;;5032138;28;20444;-64
2022/09/30 13:44:33;;;;;;;57.50;2.30;;;;;;;;;;5031797;28;20489;-63
2022/09/30 13:47:02;;;;;;;57.60;2.40;;;;;;;;;;5032152;28;20445;-65
2022/09/30 13:49:41;;;;;;;57.00;1.77;;;;;;;;;;5031825;28;20540;-63
2022/09/30 13:52:12;;;;;;;56.90;2.10;;;;;;;;;;5032215;28;20850;-64
2022/09/30 13:54:44;;;;;;;57.20;1.90;;;;;;;;;;5032051;28;20488;-63
2022/09/30 13:57:16;;;;;;;57.03;1.90;;;;;;;;;;5032178;28;20449;-63
2022/09/30 13:59:48;;;;;;;57.07;1.90;;;;;;;;;;5031638;28;20938;-64
2022/09/30 14:02:33;;;;;;;57.17;1.93;;;;;;;;;;5031865;28;20450;-64
2022/09/30 14:05:19;;;;;;;57.10;1.80;;;;;;;;;;5031705;28;20494;-65
2022/09/30 14:07:56;;;;;;;57.37;1.90;;;;;;;;;;5031927;28;20451;-65
2022/09/30 14:10:36;;;;;;;57.27;1.90;;;;;;;;;;5030844;28;20453;-64
2022/09/30 14:13:17;;;;;;;57.80;2.00;;;;;;;;;;5031769;28;20460;-66
2022/09/30 14:16:06;;;;;;;57.90;2.00;;;;;;;;;;5031470;28;21020;-65
2022/09/30 14:18:57;;;;;;;59.63;2.40;;;;;;;;;;5026805;28;20522;-68
2022/09/30 14:21:29;;;;;;;57.63;2.50;;;;;;;;;;4976080;28;20483;-65
2022/09/30 14:24:00;;;;;;;57.30;2.47;;;;;;;;;;5031473;28;21177;-62
2022/09/30 14:26:42;;;;;;;57.90;2.30;;;;;;;;;;5031840;28;20515;-63
2022/09/30 14:29:15;;;;;;;57.47;2.20;;;;;;;;;;5029222;28;20454;-63
2022/09/30 14:31:44;;;;;;;57.77;2.20;;;;;;;;;;5031443;28;20449;-63
2022/09/30 14:34:12;;;;;;;57.90;2.60;;;;;;;;;;5031203;28;20457;-64
2022/09/30 14:36:40;;;;;;;58.30;2.47;;;;;;;;;;5031326;28;20438;-64
2022/09/30 14:39:14;;;;;;;57.30;2.53;;;;;;;;;;5031270;28;20819;-63
2022/09/30 14:41:45;;;;;;;58.07;2.40;;;;;;;;;;5031567;28;20460;-66
2022/09/30 14:44:16;;;;;;;57.77;2.57;;;;;;;;;;5031415;28;20445;-62
2022/09/30 14:46:45;;;;;;;58.07;2.97;;;;;;;;;;5031343;28;20937;-62
2022/09/30 14:49:15;;;;;;;58.30;2.60;;;;;;;;;;5030952;28;20472;-63
2022/09/30 14:51:44;;;;;;;57.60;2.50;;;;;;;;;;5031527;28;20445;-63
2022/09/30 14:54:19;;;;;;;58.50;2.50;;;;;;;;;;5031360;28;20448;-62
2022/09/30 14:56:47;;;;;;;58.10;2.80;;;;;;;;;;5031438;28;20481;-62
2022/09/30 14:59:17;;;;;;;57.97;2.50;;;;;;;;;;5030982;28;20456;-66